Terminal Aerodrome Forecast
Issued by NWS Melbourne, FL

Home | Current Version | Previous Version | Text Only | Print | Product List | Glossary On
Versions: 1 2 3 4 5 6 7 8 9 10 11 12 13 14 15 16 17 18 19 20 21 22 23 24 25 26 27
000
FTUS42 KMLB 230607 AAA
TAFMCO
TAF AMD
KMCO 230607Z 2306/2406 35005KT P6SM -RA SCT015 SCT050 OVC100
      TEMPO 2306/2309 5SM RA BR BKN015 OVC050
     FM230900 31005KT P6SM VCSH SCT006 OVC012
      TEMPO 2309/2313 5SM BR OVC006
     FM231500 01008KT P6SM BKN012
     FM231900 03012KT P6SM BKN035=

USA.gov is the U.S. government's official web portal to all federal, state and local government web resources and services.